.
WxDataArchive / Data Records for 2013-02-02
2013-02-01 February 2013 2013-02-03

Data Records for Saturday, 02 February 2013

Time	Temp	Chill	HIndex	Humid	Dewpt	 Wind 	HiWind	WindDir	Rain 	Barom 
-----	----	-----	------	-----	-----	------	------	-------	-----	----- 
00:00	12.9	12.9	12.9	69	4.7	1	4	248	0.00	30.295 
00:05	12.9	12.9	12.9	70	5.0	1	3	248	0.00	30.295 
00:10	12.9	12.9	12.9	70	5.0	1	3	248	0.00	30.295 
00:15	12.9	12.9	12.9	70	5.0	1	4	248	0.00	30.283 
00:20	12.9	12.9	12.9	70	5.0	0	2	248	0.00	30.283 
00:25	12.9	12.9	12.9	71	5.3	0	3	248	0.00	30.283 
00:30	12.9	12.9	12.9	71	5.3	1	4	248	0.00	30.282 
00:35	13.1	13.1	13.1	71	5.5	0	3	248	0.00	30.282 
00:40	13.1	13.1	13.1	71	5.5	0	2	248	0.00	30.282 
00:45	13.1	13.1	13.1	71	5.5	0	2	248	0.00	30.278 
00:50	13.1	13.1	13.1	71	5.5	0	3	248	0.00	30.278 
00:55	13.3	13.3	13.3	71	5.7	1	2	248	0.00	30.278 
01:00	13.5	13.5	13.5	71	5.9	0	2	248	0.00	30.271 
01:05	13.6	13.6	13.6	71	6.0	0	2	248	0.00	30.271 
01:10	13.8	13.8	13.8	71	6.2	1	5	248	0.00	30.271 
01:15	14.0	14.0	14.0	70	6.0	1	4	248	0.00	30.266 
01:20	14.3	14.3	14.3	70	6.3	0	3	248	0.00	30.266 
01:25	14.4	14.4	14.4	70	6.4	0	4	248	0.00	30.266 
01:30	14.4	14.4	14.4	70	6.4	1	2	248	0.00	30.261 
01:35	14.6	14.6	14.6	70	6.6	1	6	248	0.00	30.261 
01:40	14.8	14.8	14.8	69	6.5	1	3	248	0.00	30.261 
01:45	14.8	14.8	14.8	69	6.5	1	3	248	0.00	30.249 
01:50	14.9	14.9	14.9	69	6.6	0	4	112	0.00	30.249 
01:55	14.9	14.9	14.9	69	6.6	1	7	90	0.00	30.249 
02:00	15.1	15.1	15.1	69	6.8	1	3	248	0.00	30.238 
02:05	15.1	15.1	15.1	69	6.8	1	3	248	0.00	30.238 
02:10	15.1	15.1	15.1	69	6.8	1	3	248	0.00	30.238 
02:15	15.2	15.2	15.2	69	6.9	1	2	248	0.00	30.249 
02:20	15.2	15.2	15.2	69	6.9	1	4	248	0.00	30.249 
02:25	15.4	15.4	15.4	70	7.4	1	3	248	0.00	30.249 
02:30	15.4	15.4	15.4	70	7.4	1	5	248	0.00	30.250 
02:35	15.4	15.4	15.4	71	7.7	1	2	248	0.00	30.250 
02:40	15.6	15.6	15.6	71	7.9	1	3	248	0.00	30.250 
02:45	15.6	15.6	15.6	71	7.9	1	3	248	0.00	30.248 
02:50	15.7	15.7	15.7	71	8.0	1	5	248	0.00	30.248 
02:55	15.7	15.7	15.7	72	8.3	1	4	248	0.00	30.248 
03:00	15.9	15.9	15.9	72	8.5	1	5	248	0.00	30.248 
03:05	15.9	15.9	15.9	73	8.8	1	5	248	0.00	30.248 
03:10	15.9	15.9	15.9	73	8.8	1	4	248	0.00	30.248 
03:15	15.9	15.9	15.9	74	9.1	1	4	248	0.00	30.244 
03:20	15.9	15.9	15.9	75	9.4	1	3	248	0.00	30.244 
03:25	15.9	15.9	15.9	77	10.0	0	2	248	0.00	30.244 
03:30	15.9	15.9	15.9	77	10.0	0	2	248	0.00	30.236 
03:35	15.9	15.9	15.9	78	10.3	0	1	248	0.00	30.236 
03:40	15.9	15.9	15.9	79	10.6	1	4	248	0.00	30.236 
03:45	15.9	15.9	15.9	79	10.6	1	2	248	0.00	30.231 
03:50	15.9	15.9	15.9	80	10.8	0	2	248	0.00	30.231 
03:55	15.9	15.9	15.9	80	10.8	0	3	248	0.00	30.231 
04:00	15.9	15.9	15.9	81	11.1	0	2	248	0.00	30.219 
04:05	15.9	15.9	15.9	81	11.1	0	2	248	0.00	30.219 
04:10	15.9	15.9	15.9	81	11.1	0	1	248	0.00	30.219 
04:15	15.9	15.9	15.9	82	11.4	0	2	248	0.00	30.215 
04:20	15.9	15.9	15.9	82	11.4	0	2	248	0.00	30.215 
04:25	15.9	15.9	15.9	82	11.4	0	3	248	0.00	30.215 
04:30	15.9	15.9	15.9	82	11.4	0	2	248	0.00	30.207 
04:35	15.9	15.9	15.9	83	11.7	1	3	248	0.00	30.207 
04:40	15.9	15.9	15.9	83	11.7	1	3	248	0.00	30.207 
04:45	15.9	15.9	15.9	83	11.7	1	2	248	0.00	30.200 
04:50	16.1	16.1	16.1	83	11.9	0	2	248	0.00	30.200 
04:55	16.1	16.1	16.1	83	11.9	1	3	248	0.00	30.200 
05:00	16.1	16.1	16.1	83	11.9	1	3	248	0.00	30.187 
05:05	16.2	16.2	16.2	83	12.0	1	3	248	0.00	30.187 
05:10	16.2	16.2	16.2	83	12.0	1	3	248	0.00	30.187 
05:15	16.2	16.2	16.2	83	12.0	1	3	248	0.00	30.176 
05:20	16.2	16.2	16.2	83	12.0	0	1	248	0.00	30.176 
05:25	16.4	16.4	16.4	83	12.2	0	3	248	0.00	30.176 
05:30	16.4	16.4	16.4	83	12.2	1	4	248	0.00	30.158 
05:35	16.4	16.4	16.4	84	12.4	1	7	248	0.00	30.158 
05:40	16.5	16.5	16.5	84	12.5	0	3	270	0.00	30.158 
05:45	16.5	16.5	16.5	84	12.5	0	3	292	0.00	30.150 
05:50	16.5	16.5	16.5	84	12.5	0	1	315	0.00	30.150 
05:55	16.7	16.7	16.7	84	12.7	0	3	90	0.00	30.150 
06:00	16.7	16.7	16.7	84	12.7	0	2	90	0.00	30.136 
06:05	16.7	16.7	16.7	84	12.7	1	4	248	0.00	30.136 
06:10	16.9	16.9	16.9	84	12.9	1	4	248	0.00	30.136 
06:15	16.9	16.9	16.9	83	12.6	0	2	0	0.00	30.130 
06:20	17.0	17.0	17.0	83	12.7	1	3	338	0.00	30.130 
06:25	17.0	17.0	17.0	83	12.7	0	2	338	0.00	30.130 
06:30	17.0	17.0	17.0	83	12.7	1	10	45	0.00	30.133 
06:35	17.0	17.0	17.0	83	12.7	0	2	292	0.00	30.133 
06:40	17.0	17.0	17.0	83	12.7	1	3	270	0.00	30.133 
06:45	17.0	17.0	17.0	83	12.7	1	4	248	0.00	30.132 
06:50	17.0	17.0	17.0	83	12.7	0	5	248	0.00	30.132 
06:55	17.0	17.0	17.0	83	12.7	1	3	270	0.00	30.132 
07:00	17.0	17.0	17.0	83	12.7	1	3	270	0.00	30.124 
07:05	17.2	17.2	17.2	83	12.9	1	3	292	0.00	30.124 
07:10	17.2	17.2	17.2	83	12.9	1	3	270	0.00	30.124 
07:15	17.2	17.2	17.2	83	12.9	1	7	292	0.00	30.125 
07:20	17.3	17.3	17.3	83	13.0	1	4	248	0.00	30.125 
07:25	17.3	17.3	17.3	83	13.0	1	3	248	0.00	30.125 
07:30	17.5	17.5	17.5	83	13.2	1	5	270	0.00	30.122 
07:35	17.5	17.5	17.5	83	13.2	1	5	248	0.00	30.122 
07:40	17.5	17.5	17.5	82	13.0	1	4	248	0.00	30.122 
07:45	17.5	17.5	17.5	82	13.0	1	2	248	0.00	30.117 
07:50	17.7	17.7	17.7	83	13.4	0	4	112	0.00	30.117 
07:55	17.7	17.7	17.7	83	13.4	1	4	248	0.00	30.117 
08:00	17.7	17.7	17.7	83	13.4	1	2	248	0.00	30.114 
08:05	17.8	17.8	17.8	83	13.5	1	4	248	0.00	30.114 
08:10	17.8	17.8	17.8	83	13.5	0	3	248	0.00	30.114 
08:15	17.8	17.8	17.8	83	13.5	1	3	248	0.00	30.104 
08:20	18.0	18.0	18.0	83	13.7	0	3	90	0.00	30.104 
08:25	18.0	18.0	18.0	83	13.7	0	3	270	0.00	30.104 
08:30	18.1	18.1	18.1	84	14.1	1	3	270	0.00	30.103 
08:35	18.3	18.3	18.3	84	14.3	0	3	270	0.00	30.103 
08:40	18.4	18.4	18.4	84	14.4	1	4	270	0.00	30.103 
08:45	18.6	18.6	18.6	84	14.6	1	4	270	0.00	30.102 
08:50	18.8	18.8	18.8	84	14.8	1	3	270	0.00	30.102 
08:55	18.9	18.9	18.9	84	14.9	1	3	248	0.00	30.102 
09:00	19.1	19.1	19.1	84	15.1	1	3	248	0.00	30.099 
09:05	19.2	19.2	19.2	83	14.9	1	3	248	0.00	30.099 
09:10	19.2	19.2	19.2	83	14.9	1	5	248	0.00	30.099 
09:15	19.4	19.4	19.4	83	15.1	1	4	248	0.00	30.094 
09:20	19.4	19.4	19.4	83	15.1	1	6	248	0.00	30.094 
09:25	19.5	19.5	19.5	83	15.2	1	4	248	0.00	30.094 
09:30	19.7	19.7	19.7	83	15.4	0	4	248	0.00	30.087 
09:35	19.9	19.9	19.9	83	15.6	1	3	248	0.00	30.087 
09:40	20.0	20.0	20.0	83	15.7	1	3	270	0.00	30.087 
09:45	20.0	20.0	20.0	83	15.7	2	5	248	0.00	30.084 
09:50	20.0	20.0	20.0	83	15.7	1	3	248	0.00	30.084 
09:55	20.2	20.2	20.2	83	15.9	1	3	270	0.00	30.084 
10:00	20.2	20.2	20.2	83	15.9	1	2	270	0.00	30.081 
10:05	20.2	20.2	20.2	84	16.2	1	4	248	0.00	30.081 
10:10	20.3	20.3	20.3	84	16.3	1	4	248	0.00	30.081 
10:15	20.3	20.3	20.3	83	16.0	1	5	248	0.00	30.073 
10:20	20.5	20.5	20.5	84	16.4	1	4	248	0.00	30.073 
10:25	20.5	20.5	20.5	84	16.4	1	4	248	0.00	30.073 
10:30	20.6	20.6	20.6	84	16.5	1	3	248	0.00	30.068 
10:35	20.8	20.8	20.8	84	16.7	1	4	248	0.00	30.068 
10:40	21.0	21.0	21.0	84	16.9	1	4	248	0.00	30.068 
10:45	21.1	21.1	21.1	84	17.0	1	4	248	0.00	30.061 
10:50	21.3	21.3	21.3	84	17.2	1	3	248	0.00	30.061 
10:55	21.4	21.4	21.4	84	17.3	1	5	248	0.00	30.061 
11:00	21.4	21.4	21.4	83	17.1	1	4	248	0.00	30.053 
11:05	21.4	21.4	21.4	84	17.3	1	4	225	0.00	30.053 
11:10	21.8	21.8	21.8	84	17.7	0	3	225	0.00	30.053 
11:15	21.9	21.9	21.9	84	17.8	1	4	248	0.00	30.051 
11:20	22.1	22.1	22.1	84	18.0	1	4	270	0.00	30.051 
11:25	22.1	22.1	22.1	83	17.7	2	5	248	0.00	30.051 
11:30	22.2	22.2	22.2	83	17.8	2	5	248	0.00	30.046 
11:35	22.2	22.2	22.2	83	17.8	1	3	248	0.00	30.046 
11:40	22.2	22.2	22.2	83	17.8	1	4	270	0.00	30.046 
11:45	22.4	22.4	22.4	83	18.0	1	4	248	0.00	30.040 
11:50	22.4	22.4	22.4	83	18.0	1	3	248	0.00	30.040 
11:55	22.4	22.4	22.4	82	17.8	2	5	248	0.00	30.040 
12:00	22.4	22.4	22.4	82	17.8	2	5	248	0.00	30.036 
12:05	22.5	22.5	22.5	81	17.6	1	5	248	0.00	30.036 
12:10	22.7	22.7	22.7	81	17.8	1	5	225	0.00	30.036 
12:15	22.9	22.9	22.9	81	18.0	1	4	248	0.00	30.029 
12:20	23.2	23.2	23.2	81	18.3	1	3	248	0.00	30.029 
12:25	23.3	23.3	23.3	81	18.3	1	3	248	0.00	30.029 
12:30	23.3	23.3	23.3	80	18.1	1	5	248	0.00	30.020 
12:35	23.5	23.5	23.5	81	18.5	1	5	248	0.00	30.020 
12:40	23.6	23.6	23.6	81	18.6	1	5	248	0.00	30.020 
12:45	23.6	23.6	23.6	80	18.4	1	3	248	0.00	30.016 
12:50	23.8	23.8	23.8	80	18.5	1	3	248	0.00	30.016 
12:55	23.9	23.9	23.9	80	18.6	1	3	248	0.00	30.016 
13:00	23.8	23.8	23.8	80	18.5	2	4	248	0.00	30.011 
13:05	23.6	23.6	23.6	80	18.4	2	4	248	0.00	30.011 
13:10	23.6	23.6	23.6	80	18.4	2	5	248	0.00	30.011 
13:15	23.6	23.6	23.6	80	18.4	1	2	248	0.00	30.006 
13:20	23.8	23.8	23.8	80	18.5	1	3	248	0.00	30.006 
13:25	23.9	23.9	23.9	81	18.9	1	4	248	0.00	30.006 
13:30	24.1	24.1	24.1	80	18.8	1	3	248	0.00	30.002 
13:35	24.1	24.1	24.1	81	19.1	1	2	248	0.00	30.002 
13:40	24.1	24.1	24.1	80	18.8	2	4	248	0.00	30.002 
13:45	24.2	24.2	24.2	81	19.2	1	5	248	0.00	29.998 
13:50	24.4	24.4	24.4	81	19.4	1	4	248	0.00	29.998 
13:55	24.5	24.5	24.5	80	19.2	2	5	248	0.00	29.998 
14:00	24.4	24.4	24.4	80	19.1	1	3	248	0.00	29.995 
14:05	24.2	24.2	24.2	80	18.9	2	3	248	0.00	29.995 
14:10	24.2	24.2	24.2	81	19.2	1	3	248	0.00	29.995 
14:15	24.4	24.4	24.4	81	19.4	0	3	248	0.00	29.989 
14:20	24.4	24.4	24.4	81	19.4	2	5	248	0.00	29.989 
14:25	24.4	24.4	24.4	81	19.4	2	4	248	0.00	29.989 
14:30	24.4	24.4	24.4	81	19.4	1	3	248	0.00	29.990 
14:35	24.4	24.4	24.4	81	19.4	1	3	248	0.00	29.990 
14:40	24.5	24.5	24.5	81	19.5	1	3	248	0.00	29.990 
14:45	24.5	24.5	24.5	81	19.5	1	4	248	0.00	29.990 
14:50	24.5	24.5	24.5	80	19.2	2	4	248	0.00	29.990 
14:55	24.7	24.7	24.7	81	19.7	1	4	248	0.00	29.990 
15:00	24.7	24.7	24.7	80	19.4	1	3	248	0.00	29.988 
15:05	24.8	24.8	24.8	81	19.8	1	3	248	0.00	29.988 
15:10	24.8	24.8	24.8	80	19.5	1	3	248	0.00	29.988 
15:15	24.7	24.7	24.7	80	19.4	1	3	248	0.00	29.987 
15:20	24.7	24.7	24.7	80	19.4	1	2	248	0.00	29.987 
15:25	24.8	24.8	24.8	81	19.8	1	4	248	0.00	29.987 
15:30	24.8	24.8	24.8	80	19.5	1	3	248	0.00	29.988 
15:35	24.8	24.8	24.8	80	19.5	1	3	248	0.00	29.988 
15:40	24.8	24.8	24.8	80	19.5	1	6	248	0.00	29.988 
15:45	24.8	24.8	24.8	80	19.5	1	3	248	0.00	29.991 
15:50	24.8	24.8	24.8	80	19.5	1	3	248	0.00	29.991 
15:55	24.8	24.8	24.8	80	19.5	2	3	248	0.00	29.991 
16:00	24.8	24.8	24.8	80	19.5	1	3	248	0.00	29.993 
16:05	24.8	24.8	24.8	80	19.5	1	3	248	0.00	29.993 
16:10	24.8	24.8	24.8	80	19.5	0	1	248	0.00	29.993 
16:15	24.8	24.8	24.8	80	19.5	0	2	248	0.00	29.996 
16:20	25.0	25.0	25.0	80	19.7	1	4	248	0.00	29.996 
16:25	25.0	25.0	25.0	80	19.7	1	4	248	0.00	29.996 
16:30	25.1	25.1	25.1	80	19.8	0	1	248	0.00	29.998 
16:35	25.1	25.1	25.1	80	19.8	1	3	248	0.00	29.998 
16:40	25.1	25.1	25.1	80	19.8	1	3	248	0.00	29.998 
16:45	25.0	25.0	25.0	80	19.7	0	2	248	0.00	30.001 
16:50	25.0	25.0	25.0	80	19.7	1	4	248	0.00	30.001 
16:55	24.8	24.8	24.8	80	19.5	1	3	248	0.00	30.001 
17:00	24.8	24.8	24.8	80	19.5	1	2	248	0.00	30.000 
17:05	24.8	24.8	24.8	81	19.8	1	3	248	0.00	30.000 
17:10	24.8	24.8	24.8	81	19.8	0	2	248	0.00	30.000 
17:15	24.8	24.8	24.8	81	19.8	0	3	248	0.00	30.001 
17:20	24.8	24.8	24.8	81	19.8	0	1	248	0.00	30.001 
17:25	24.7	24.7	24.7	81	19.7	0	2	248	0.00	30.001 
17:30	24.7	24.7	24.7	81	19.7	0	2	248	0.00	30.004 
17:35	24.7	24.7	24.7	81	19.7	0	1	248	0.00	30.004 
17:40	24.7	24.7	24.7	82	20.0	0	1	248	0.00	30.004 
17:45	24.7	24.7	24.7	82	20.0	0	1	248	0.00	30.010 
17:50	24.5	24.5	24.5	82	19.8	0	2	248	0.00	30.010 
17:55	24.5	24.5	24.5	82	19.8	0	1	248	0.00	30.010 
18:00	24.5	24.5	24.5	83	20.1	0	1	248	0.00	30.011 
18:05	24.4	24.4	24.4	83	20.0	1	3	248	0.00	30.011 
18:10	23.3	23.3	23.3	82	18.6	2	6	292	0.00	30.011 
18:15	22.5	22.5	22.5	83	18.1	1	2	270	0.00	30.022 
18:20	22.2	22.2	22.2	83	17.8	0	2	292	0.00	30.022 
18:25	21.8	21.8	21.8	83	17.4	0	1	292	0.00	30.022 
18:30	21.4	21.4	21.4	84	17.3	0	2	292	0.00	30.031 
18:35	21.0	21.0	21.0	84	16.9	1	2	292	0.00	30.031 
18:40	20.5	20.5	20.5	84	16.4	1	3	315	0.00	30.031 
18:45	20.3	20.3	20.3	84	16.3	1	5	338	0.00	30.036 
18:50	20.2	20.2	20.2	84	16.2	1	3	315	0.00	30.036 
18:55	20.2	20.2	20.2	84	16.2	1	4	315	0.00	30.036 
19:00	20.0	20.0	20.0	83	15.7	0	2	315	0.00	30.043 
19:05	20.0	20.0	20.0	83	15.7	0	2	315	0.00	30.043 
19:10	19.9	19.9	19.9	83	15.6	0	3	315	0.00	30.043 
19:15	19.7	19.7	19.7	83	15.4	0	3	292	0.00	30.046 
19:20	19.7	19.7	19.7	82	15.1	0	2	292	0.00	30.046 
19:25	19.5	19.5	19.5	82	14.9	0	2	292	0.00	30.046 
19:30	19.5	19.5	19.5	82	14.9	0	1	292	0.00	30.048 
19:35	19.5	19.5	19.5	81	14.6	0	1	292	0.00	30.048 
19:40	19.4	19.4	19.4	81	14.5	0	1	292	0.00	30.048 
19:45	19.4	19.4	19.4	81	14.5	0	2	292	0.00	30.050 
19:50	19.4	19.4	19.4	81	14.5	0	2	292	0.00	30.050 
19:55	19.4	19.4	19.4	81	14.5	0	2	292	0.00	30.050 
20:00	19.4	19.4	19.4	82	14.8	0	1	292	0.00	30.051 
20:05	19.4	19.4	19.4	82	14.8	0	1	292	0.00	30.051 
20:10	19.4	19.4	19.4	82	14.8	0	1	292	0.00	30.051 
20:15	19.2	19.2	19.2	81	14.3	0	2	292	0.00	30.051 
20:20	19.2	19.2	19.2	81	14.3	0	1	292	0.00	30.051 
20:25	19.1	19.1	19.1	81	14.2	0	2	292	0.00	30.051 
20:30	19.1	19.1	19.1	81	14.2	0	1	292	0.00	30.050 
20:35	19.1	19.1	19.1	81	14.2	0	1	292	0.00	30.050 
20:40	18.9	18.9	18.9	81	14.1	0	1	292	0.00	30.050 
20:45	18.9	18.9	18.9	81	14.1	0	2	292	0.00	30.054 
20:50	18.9	18.9	18.9	81	14.1	0	2	292	0.00	30.054 
20:55	18.9	18.9	18.9	81	14.1	0	2	292	0.00	30.054 
21:00	18.8	18.8	18.8	81	14.0	0	1	292	0.00	30.057 
21:05	18.8	18.8	18.8	81	14.0	0	3	292	0.00	30.057 
21:10	18.8	18.8	18.8	81	14.0	0	0	---	0.00	30.057 
21:15	18.8	18.8	18.8	80	13.7	0	0	---	0.00	30.060 
21:20	18.8	18.8	18.8	80	13.7	0	0	---	0.00	30.060 
21:25	18.8	18.8	18.8	81	14.0	0	0	---	0.00	30.060 
21:30	18.8	18.8	18.8	81	14.0	0	1	292	0.00	30.064 
21:35	18.8	18.8	18.8	81	14.0	0	0	---	0.00	30.064 
21:40	18.8	18.8	18.8	81	14.0	0	0	---	0.00	30.064 
21:45	18.8	18.8	18.8	81	14.0	0	0	---	0.00	30.064 
21:50	18.8	18.8	18.8	81	14.0	0	0	---	0.00	30.064 
21:55	18.8	18.8	18.8	81	14.0	0	1	292	0.00	30.064 
22:00	18.8	18.8	18.8	81	14.0	0	1	292	0.00	30.064 
22:05	18.8	18.8	18.8	81	14.0	0	0	---	0.00	30.064 
22:10	18.8	18.8	18.8	80	13.7	0	2	292	0.00	30.064 
22:15	18.6	18.6	18.6	80	13.5	0	1	292	0.00	30.062 
22:20	18.6	18.6	18.6	80	13.5	0	0	---	0.00	30.062 
22:25	18.6	18.6	18.6	80	13.5	0	0	---	0.00	30.062 
22:30	18.6	18.6	18.6	80	13.5	0	0	---	0.00	30.061 
22:35	18.6	18.6	18.6	80	13.5	0	0	---	0.00	30.061 
22:40	18.4	18.4	18.4	80	13.3	0	1	292	0.00	30.061 
22:45	18.4	18.4	18.4	79	13.0	0	0	---	0.00	30.061 
22:50	18.4	18.4	18.4	79	13.0	0	0	---	0.00	30.061 
22:55	18.3	18.3	18.3	79	12.9	0	0	---	0.00	30.061 
23:00	18.3	18.3	18.3	79	12.9	0	0	---	0.00	30.056 
23:05	18.3	18.3	18.3	79	12.9	0	1	292	0.00	30.056 
23:10	18.3	18.3	18.3	78	12.6	0	0	---	0.00	30.056 
23:15	18.1	18.1	18.1	78	12.4	0	1	292	0.00	30.048 
23:20	18.1	18.1	18.1	78	12.4	0	0	---	0.00	30.048 
23:25	18.1	18.1	18.1	78	12.4	0	0	---	0.00	30.048 
23:30	18.1	18.1	18.1	77	12.1	0	1	292	0.00	30.047 
23:35	18.0	18.0	18.0	77	12.0	0	1	292	0.00	30.047 
23:40	18.0	18.0	18.0	77	12.0	0	1	292	0.00	30.047 
23:45	17.8	17.8	17.8	77	11.8	0	1	292	0.00	30.046 
23:50	17.8	17.8	17.8	77	11.8	0	2	292	0.00	30.046 
23:55	17.8	17.8	17.8	77	11.8	0	1	292	0.00	30.046 

CoCoRaHS
IN-AL-39
A2 Web Hosting
Creative Commons License
GoDaddy
search engine by freefind advanced

loaded 2018-11-16 11:35:23 • last modified 2010-11-18 10:43:29
Privacy PolicyDisclaimer
• wx.awcolley.com is powered by PmWiki v.2002016 •
• all content (unless otherwise noted) © 2018 A W Colley